This is the latest recevied weather packets stored in our database for station/object EA5HPA-11. If no packets are shown the sender has not sent any weather packets the latest 10 day(s).
| Time | Temp. | Humidity | Pressure | Rain* | Wind** | Luminosity | Snow |
|---|---|---|---|---|---|---|---|
| 1787473019 | 26.11° C | 73% | 1016 hPa | 0 mm | - | - | - |
| 1787472718 | 26.11° C | 72% | 1016 hPa | 0 mm | - | - | - |
| 1787472417 | 26.11° C | 72% | 1016 hPa | 0 mm | - | - | - |
| 1787472116 | 26.11° C | 73% | 1016 hPa | 0 mm | - | - | - |
| 1787471815 | 26.11° C | 73% | 1016 hPa | 0 mm | - | - | - |
| 1787471515 | 25.56° C | 74% | 1016 hPa | 0 mm | - | - | - |
| 1787471214 | 25.56° C | 74% | 1016 hPa | 0 mm | - | - | - |
| 1787470913 | 25° C | 76% | 1016 hPa | 0 mm | - | - | - |
| 1787470612 | 25° C | 76% | 1016 hPa | 0 mm | - | - | - |
| 1787470311 | 24.44° C | 77% | 1016 hPa | 0 mm | - | - | - |
| 1787470010 | 24.44° C | 77% | 1016 hPa | 0 mm | - | - | - |
| 1787469710 | 24.44° C | 76% | 1016 hPa | 0 mm | - | - | - |
| 1787469409 | 24.44° C | 77% | 1016 hPa | 0 mm | - | - | - |
| 1787469108 | 24.44° C | 80% | 1016 hPa | 0 mm | - | - | - |
| 1787468807 | 24.44° C | 80% | 1016 hPa | 0 mm | - | - | - |
| 1787468506 | 23.33° C | 80% | 1016 hPa | 0 mm | - | - | - |
| 1787468205 | 23.89° C | 80% | 1016 hPa | 0 mm | - | - | - |
| 1787467904 | 23.89° C | 80% | 1016 hPa | 0 mm | - | - | - |
| 1787467604 | 23.89° C | 81% | 1016 hPa | 0 mm | - | - | - |
| 1787467303 | 23.89° C | 82% | 1016 hPa | 0 mm | - | - | - |
| 1787467002 | 23.89° C | 82% | 1016 hPa | 0 mm | - | - | - |
| 1787466701 | 23.33° C | 83% | 1016 hPa | 0 mm | - | - | - |
| 1787466400 | 22.22° C | 88% | 1016 hPa | 0 mm | - | - | - |
| 1787465664 | 22.22° C | 88% | 1015 hPa | 0 mm | - | - | - |
| 1787465363 | 23.33° C | 85% | 1015 hPa | 0 mm | - | - | - |
* Rain latest hour (hover to see other rain measurements)
** Current wind speed in m/s (hover to see current wind gust speed)